Airfield :
LOGIN :

Register | Disclaimer

   EN    FR    IT 

 










Legend :    VFR   Marginal VFR   IFR   Intensive IFR   Very Intensive IFR
Visi :
Ceiling :
>= 8 km
>= 3000ft
5 to 8 km
1000 to 3000 ft
1500m to 5 km
500 to 1000 ft
800 to 1500m
200 to 500 ft
< 800m
< 200 ft
Symbols :   Thunderstorms  Fog  Heavy snow  Heavy precipitations  Wind > 20 kt
SIGMETs :     Misc.  Thunderstorms  Icing  Turbulence  Mountain Waves  Volcanic Ashes






- Airport Elevation : 24 ft
- IATA code : IBZ


LEIB - Ibiza

CURRENT METAR :
  • 231800Z 02004KT 350V070 9999 FEW030 17/13 Q1020 NOSIG

EXPIRED METARs :
  • 231730Z 36004KT 9999 FEW030 18/13 Q1020 NOSIG
  • 231700Z 01006G17KT 340V070 9999 FEW030 19/13 Q1020 NOSIG
  • 231630Z 01006KT 340V040 9999 FEW030 19/13 Q1020 NOSIG
  • 231600Z 02008KT 330V060 9999 FEW030 20/13 Q1020 NOSIG
  • 231530Z 03007KT 350V060 9999 FEW030 20/13 Q1020 NOSIG

TAF TAF LEIB
Valid from the 23 at 15:00 until the 24 at 15:00 UTC


231400Z 2315/2415 05010KT 9999 FEW020 TX22/2412Z TN14/2406Z
BECMG 2316/2318 33005KT
BECMG 2408/2410 34010KT



MET'MAP, your aeronautical weather chart ! - Copyright ORBIFLY December 2007 - Disclaimer

ORBIFLY MET'MAP TEAM :

Programming & Development : Alexandra Zaïnal
Concept & original design : Baudouin d'Aumeries
Assistance for programming : Marc-Olivier Méhu
Technical & hardware support : Manuel Goepfert

Contact : metmap@orbifly.com




SOURCES & CREDITS :

   NOAA